sensor_id;sensor_type;location;lat;lon;timestamp;P1;durP1;ratioP1;P2;durP2;ratioP2
30068;SDS011;16894;49.456;10.644;2023-01-28T00:00:46;50.30;;;22.65;;
30068;SDS011;16894;49.456;10.644;2023-01-28T00:03:11;42.03;;;18.93;;
30068;SDS011;16894;49.456;10.644;2023-01-28T00:05:37;73.88;;;26.98;;
30068;SDS011;16894;49.456;10.644;2023-01-28T00:08:03;72.20;;;28.87;;
30068;SDS011;16894;49.456;10.644;2023-01-28T00:10:29;67.20;;;26.20;;
30068;SDS011;16894;49.456;10.644;2023-01-28T00:12:54;78.17;;;28.50;;
30068;SDS011;16894;49.456;10.644;2023-01-28T00:15:20;39.87;;;15.70;;
30068;SDS011;16894;49.456;10.644;2023-01-28T00:17:45;99.47;;;36.00;;
30068;SDS011;16894;49.456;10.644;2023-01-28T00:20:11;202.73;;;55.70;;
30068;SDS011;16894;49.456;10.644;2023-01-28T00:22:37;197.18;;;58.85;;
30068;SDS011;16894;49.456;10.644;2023-01-28T00:25:02;71.67;;;26.00;;
30068;SDS011;16894;49.456;10.644;2023-01-28T00:27:28;57.28;;;19.75;;
30068;SDS011;16894;49.456;10.644;2023-01-28T00:32:20;65.90;;;20.40;;
30068;SDS011;16894;49.456;10.644;2023-01-28T00:34:46;83.13;;;25.67;;
30068;SDS011;16894;49.456;10.644;2023-01-28T00:37:14;100.10;;;32.00;;
30068;SDS011;16894;49.456;10.644;2023-01-28T00:39:39;74.85;;;27.30;;
30068;SDS011;16894;49.456;10.644;2023-01-28T00:42:05;105.13;;;36.70;;
30068;SDS011;16894;49.456;10.644;2023-01-28T00:44:31;53.07;;;21.80;;
30068;SDS011;16894;49.456;10.644;2023-01-28T00:46:56;59.97;;;22.73;;
30068;SDS011;16894;49.456;10.644;2023-01-28T00:49:22;45.83;;;19.70;;
30068;SDS011;16894;49.456;10.644;2023-01-28T00:51:47;43.00;;;18.27;;
30068;SDS011;16894;49.456;10.644;2023-01-28T00:54:13;53.13;;;21.10;;
30068;SDS011;16894;49.456;10.644;2023-01-28T00:56:39;40.13;;;16.50;;
30068;SDS011;16894;49.456;10.644;2023-01-28T00:59:04;36.97;;;15.53;;
30068;SDS011;16894;49.456;10.644;2023-01-28T01:01:30;21.17;;;11.57;;
30068;SDS011;16894;49.456;10.644;2023-01-28T01:03:56;25.98;;;12.35;;
30068;SDS011;16894;49.456;10.644;2023-01-28T01:06:26;16.58;;;9.10;;
30068;SDS011;16894;49.456;10.644;2023-01-28T01:08:57;11.38;;;6.72;;
30068;SDS011;16894;49.456;10.644;2023-01-28T01:11:23;23.45;;;9.20;;
30068;SDS011;16894;49.456;10.644;2023-01-28T01:13:52;35.20;;;14.93;;
30068;SDS011;16894;49.456;10.644;2023-01-28T01:16:20;44.95;;;18.38;;
30068;SDS011;16894;49.456;10.644;2023-01-28T01:18:47;18.80;;;10.48;;
30068;SDS011;16894;49.456;10.644;2023-01-28T01:21:15;15.73;;;10.13;;
30068;SDS011;16894;49.456;10.644;2023-01-28T01:23:42;13.85;;;8.35;;
30068;SDS011;16894;49.456;10.644;2023-01-28T01:26:08;13.60;;;8.18;;
30068;SDS011;16894;49.456;10.644;2023-01-28T01:28:34;14.18;;;9.35;;
30068;SDS011;16894;49.456;10.644;2023-01-28T01:31:03;14.57;;;10.13;;
30068;SDS011;16894;49.456;10.644;2023-01-28T01:33:34;14.20;;;8.52;;
30068;SDS011;16894;49.456;10.644;2023-01-28T01:36:00;16.50;;;9.27;;
30068;SDS011;16894;49.456;10.644;2023-01-28T01:38:26;15.88;;;10.90;;
30068;SDS011;16894;49.456;10.644;2023-01-28T01:41:01;14.55;;;9.40;;
30068;SDS011;16894;49.456;10.644;2023-01-28T01:43:48;13.90;;;9.03;;
30068;SDS011;16894;49.456;10.644;2023-01-28T01:46:32;17.67;;;10.27;;
30068;SDS011;16894;49.456;10.644;2023-01-28T01:52:02;17.15;;;9.73;;
30068;SDS011;16894;49.456;10.644;2023-01-28T01:54:33;14.40;;;9.30;;
30068;SDS011;16894;49.456;10.644;2023-01-28T01:57:00;16.15;;;10.07;;
30068;SDS011;16894;49.456;10.644;2023-01-28T01:59:28;15.70;;;10.13;;
30068;SDS011;16894;49.456;10.644;2023-01-28T02:01:57;15.88;;;9.60;;
30068;SDS011;16894;49.456;10.644;2023-01-28T02:04:31;13.60;;;8.85;;
30068;SDS011;16894;49.456;10.644;2023-01-28T02:07:01;16.13;;;7.95;;
30068;SDS011;16894;49.456;10.644;2023-01-28T02:09:29;20.55;;;8.77;;
30068;SDS011;16894;49.456;10.644;2023-01-28T02:14:34;24.58;;;9.80;;
30068;SDS011;16894;49.456;10.644;2023-01-28T02:17:02;17.75;;;9.00;;
30068;SDS011;16894;49.456;10.644;2023-01-28T02:19:31;16.27;;;9.15;;
30068;SDS011;16894;49.456;10.644;2023-01-28T02:22:08;15.85;;;9.82;;
30068;SDS011;16894;49.456;10.644;2023-01-28T02:30:33;15.07;;;8.57;;
30068;SDS011;16894;49.456;10.644;2023-01-28T02:33:08;17.45;;;9.90;;
30068;SDS011;16894;49.456;10.644;2023-01-28T02:35:51;15.15;;;9.77;;
30068;SDS011;16894;49.456;10.644;2023-01-28T02:38:23;20.98;;;11.27;;
30068;SDS011;16894;49.456;10.644;2023-01-28T02:40:55;15.52;;;9.65;;
30068;SDS011;16894;49.456;10.644;2023-01-28T02:43:36;16.40;;;9.98;;
30068;SDS011;16894;49.456;10.644;2023-01-28T02:49:01;25.38;;;13.65;;
30068;SDS011;16894;49.456;10.644;2023-01-28T02:54:28;20.20;;;11.70;;
30068;SDS011;16894;49.456;10.644;2023-01-28T03:02:39;38.15;;;19.17;;
30068;SDS011;16894;49.456;10.644;2023-01-28T03:05:25;58.78;;;28.73;;
30068;SDS011;16894;49.456;10.644;2023-01-28T03:07:58;25.80;;;14.20;;
30068;SDS011;16894;49.456;10.644;2023-01-28T03:10:24;27.67;;;15.77;;
30068;SDS011;16894;49.456;10.644;2023-01-28T03:12:52;35.10;;;19.05;;
30068;SDS011;16894;49.456;10.644;2023-01-28T03:15:40;25.55;;;13.27;;
30068;SDS011;16894;49.456;10.644;2023-01-28T03:18:38;23.75;;;14.30;;
30068;SDS011;16894;49.456;10.644;2023-01-28T03:21:28;22.80;;;12.82;;
30068;SDS011;16894;49.456;10.644;2023-01-28T03:24:20;28.33;;;15.32;;
30068;SDS011;16894;49.456;10.644;2023-01-28T03:27:18;26.25;;;12.90;;
30068;SDS011;16894;49.456;10.644;2023-01-28T03:30:09;30.17;;;14.10;;
30068;SDS011;16894;49.456;10.644;2023-01-28T03:32:59;32.45;;;17.30;;
30068;SDS011;16894;49.456;10.644;2023-01-28T03:35:45;55.60;;;24.70;;
30068;SDS011;16894;49.456;10.644;2023-01-28T03:38:30;25.50;;;14.40;;
30068;SDS011;16894;49.456;10.644;2023-01-28T03:41:06;41.30;;;19.55;;
30068;SDS011;16894;49.456;10.644;2023-01-28T03:43:33;46.88;;;21.88;;
30068;SDS011;16894;49.456;10.644;2023-01-28T03:45:59;55.00;;;23.60;;
30068;SDS011;16894;49.456;10.644;2023-01-28T03:48:25;54.28;;;25.15;;
30068;SDS011;16894;49.456;10.644;2023-01-28T03:50:53;45.53;;;20.65;;
30068;SDS011;16894;49.456;10.644;2023-01-28T03:53:20;32.42;;;16.30;;
30068;SDS011;16894;49.456;10.644;2023-01-28T03:55:47;43.30;;;23.38;;
30068;SDS011;16894;49.456;10.644;2023-01-28T03:58:14;39.50;;;20.77;;
30068;SDS011;16894;49.456;10.644;2023-01-28T04:03:17;23.95;;;15.35;;
30068;SDS011;16894;49.456;10.644;2023-01-28T04:05:58;23.35;;;13.35;;
30068;SDS011;16894;49.456;10.644;2023-01-28T04:08:30;25.13;;;13.40;;
30068;SDS011;16894;49.456;10.644;2023-01-28T04:10:56;27.30;;;15.43;;
30068;SDS011;16894;49.456;10.644;2023-01-28T04:13:22;26.45;;;14.75;;
30068;SDS011;16894;49.456;10.644;2023-01-28T04:15:47;27.67;;;15.03;;
30068;SDS011;16894;49.456;10.644;2023-01-28T04:18:13;28.88;;;15.23;;
30068;SDS011;16894;49.456;10.644;2023-01-28T04:20:39;29.97;;;15.53;;
30068;SDS011;16894;49.456;10.644;2023-01-28T04:23:05;34.63;;;16.10;;
30068;SDS011;16894;49.456;10.644;2023-01-28T04:25:31;30.80;;;16.55;;
30068;SDS011;16894;49.456;10.644;2023-01-28T04:27:58;31.27;;;15.93;;
30068;SDS011;16894;49.456;10.644;2023-01-28T04:30:24;28.00;;;16.73;;
30068;SDS011;16894;49.456;10.644;2023-01-28T04:32:50;28.83;;;15.55;;
30068;SDS011;16894;49.456;10.644;2023-01-28T04:35:16;31.88;;;15.48;;
30068;SDS011;16894;49.456;10.644;2023-01-28T04:37:42;31.45;;;16.83;;
30068;SDS011;16894;49.456;10.644;2023-01-28T04:40:09;33.15;;;15.98;;
30068;SDS011;16894;49.456;10.644;2023-01-28T04:42:36;34.60;;;16.90;;
30068;SDS011;16894;49.456;10.644;2023-01-28T04:45:01;30.73;;;17.00;;
30068;SDS011;16894;49.456;10.644;2023-01-28T04:47:28;32.83;;;17.63;;
30068;SDS011;16894;49.456;10.644;2023-01-28T04:49:53;39.13;;;18.07;;
30068;SDS011;16894;49.456;10.644;2023-01-28T04:52:19;30.80;;;18.40;;
30068;SDS011;16894;49.456;10.644;2023-01-28T04:54:44;37.90;;;19.77;;
30068;SDS011;16894;49.456;10.644;2023-01-28T04:57:10;37.50;;;20.60;;
30068;SDS011;16894;49.456;10.644;2023-01-28T04:59:36;36.57;;;21.17;;
30068;SDS011;16894;49.456;10.644;2023-01-28T05:02:01;39.97;;;21.30;;
30068;SDS011;16894;49.456;10.644;2023-01-28T05:04:27;40.53;;;21.87;;
30068;SDS011;16894;49.456;10.644;2023-01-28T05:06:52;41.40;;;24.27;;
30068;SDS011;16894;49.456;10.644;2023-01-28T05:09:18;42.20;;;23.00;;
30068;SDS011;16894;49.456;10.644;2023-01-28T05:11:44;45.03;;;28.43;;
30068;SDS011;16894;49.456;10.644;2023-01-28T05:14:09;38.50;;;26.97;;
30068;SDS011;16894;49.456;10.644;2023-01-28T05:16:35;42.78;;;27.42;;
30068;SDS011;16894;49.456;10.644;2023-01-28T05:19:01;47.15;;;33.28;;
30068;SDS011;16894;49.456;10.644;2023-01-28T05:21:26;53.00;;;30.65;;
30068;SDS011;16894;49.456;10.644;2023-01-28T05:23:52;43.00;;;30.25;;
30068;SDS011;16894;49.456;10.644;2023-01-28T05:26:18;47.03;;;34.38;;
30068;SDS011;16894;49.456;10.644;2023-01-28T05:28:44;50.53;;;34.92;;
30068;SDS011;16894;49.456;10.644;2023-01-28T05:31:10;51.57;;;35.93;;
30068;SDS011;16894;49.456;10.644;2023-01-28T05:33:36;51.05;;;30.75;;
30068;SDS011;16894;49.456;10.644;2023-01-28T05:36:02;49.63;;;34.17;;
30068;SDS011;16894;49.456;10.644;2023-01-28T05:38:27;53.88;;;32.28;;
30068;SDS011;16894;49.456;10.644;2023-01-28T05:40:53;50.33;;;35.13;;
30068;SDS011;16894;49.456;10.644;2023-01-28T05:43:19;53.95;;;37.70;;
30068;SDS011;16894;49.456;10.644;2023-01-28T05:45:45;57.37;;;37.30;;
30068;SDS011;16894;49.456;10.644;2023-01-28T05:48:12;50.83;;;34.95;;
30068;SDS011;16894;49.456;10.644;2023-01-28T05:53:04;51.95;;;30.25;;
30068;SDS011;16894;49.456;10.644;2023-01-28T05:55:31;52.15;;;31.45;;
30068;SDS011;16894;49.456;10.644;2023-01-28T05:57:56;55.05;;;33.50;;
30068;SDS011;16894;49.456;10.644;2023-01-28T06:00:22;51.87;;;34.23;;
30068;SDS011;16894;49.456;10.644;2023-01-28T06:02:49;57.53;;;38.50;;
30068;SDS011;16894;49.456;10.644;2023-01-28T06:05:16;54.13;;;36.65;;
30068;SDS011;16894;49.456;10.644;2023-01-28T06:07:45;51.15;;;38.28;;
30068;SDS011;16894;49.456;10.644;2023-01-28T06:10:11;47.80;;;34.55;;
30068;SDS011;16894;49.456;10.644;2023-01-28T06:12:38;57.70;;;37.50;;
30068;SDS011;16894;49.456;10.644;2023-01-28T06:15:03;50.22;;;36.40;;
30068;SDS011;16894;49.456;10.644;2023-01-28T06:17:30;51.55;;;36.85;;
30068;SDS011;16894;49.456;10.644;2023-01-28T06:19:55;54.13;;;31.95;;
30068;SDS011;16894;49.456;10.644;2023-01-28T06:22:21;50.57;;;31.57;;
30068;SDS011;16894;49.456;10.644;2023-01-28T06:24:46;56.40;;;34.10;;
30068;SDS011;16894;49.456;10.644;2023-01-28T06:27:12;118.83;;;53.67;;
30068;SDS011;16894;49.456;10.644;2023-01-28T06:29:38;89.50;;;50.23;;
30068;SDS011;16894;49.456;10.644;2023-01-28T06:32:04;88.40;;;48.47;;
30068;SDS011;16894;49.456;10.644;2023-01-28T06:34:29;85.05;;;47.80;;
30068;SDS011;16894;49.456;10.644;2023-01-28T06:36:55;79.07;;;42.92;;
30068;SDS011;16894;49.456;10.644;2023-01-28T06:39:21;76.80;;;38.33;;
30068;SDS011;16894;49.456;10.644;2023-01-28T06:41:47;125.00;;;55.67;;
30068;SDS011;16894;49.456;10.644;2023-01-28T06:44:13;89.82;;;45.42;;
30068;SDS011;16894;49.456;10.644;2023-01-28T06:46:39;64.28;;;38.95;;
30068;SDS011;16894;49.456;10.644;2023-01-28T06:49:05;56.80;;;35.67;;
30068;SDS011;16894;49.456;10.644;2023-01-28T06:51:30;53.70;;;38.23;;
30068;SDS011;16894;49.456;10.644;2023-01-28T06:53:56;70.00;;;39.33;;
30068;SDS011;16894;49.456;10.644;2023-01-28T06:56:22;38.95;;;26.75;;
30068;SDS011;16894;49.456;10.644;2023-01-28T06:58:48;52.03;;;36.27;;
30068;SDS011;16894;49.456;10.644;2023-01-28T07:01:13;53.83;;;37.72;;
30068;SDS011;16894;49.456;10.644;2023-01-28T07:03:39;53.73;;;34.63;;
30068;SDS011;16894;49.456;10.644;2023-01-28T07:06:04;46.47;;;34.17;;
30068;SDS011;16894;49.456;10.644;2023-01-28T07:08:30;50.47;;;30.98;;
30068;SDS011;16894;49.456;10.644;2023-01-28T07:10:57;47.13;;;31.08;;
30068;SDS011;16894;49.456;10.644;2023-01-28T07:13:23;44.13;;;32.88;;
30068;SDS011;16894;49.456;10.644;2023-01-28T07:15:49;50.28;;;34.45;;
30068;SDS011;16894;49.456;10.644;2023-01-28T07:18:14;56.47;;;35.13;;
30068;SDS011;16894;49.456;10.644;2023-01-28T07:20:40;59.17;;;34.58;;
30068;SDS011;16894;49.456;10.644;2023-01-28T07:23:06;53.42;;;31.95;;
30068;SDS011;16894;49.456;10.644;2023-01-28T07:25:32;47.58;;;32.35;;
30068;SDS011;16894;49.456;10.644;2023-01-28T07:27:57;45.37;;;32.93;;
30068;SDS011;16894;49.456;10.644;2023-01-28T07:30:23;36.63;;;25.53;;
30068;SDS011;16894;49.456;10.644;2023-01-28T07:32:53;42.92;;;29.13;;
30068;SDS011;16894;49.456;10.644;2023-01-28T07:35:22;43.33;;;30.02;;
30068;SDS011;16894;49.456;10.644;2023-01-28T07:40:17;52.45;;;36.38;;
30068;SDS011;16894;49.456;10.644;2023-01-28T07:42:43;54.22;;;31.25;;
30068;SDS011;16894;49.456;10.644;2023-01-28T07:45:09;98.40;;;43.08;;
30068;SDS011;16894;49.456;10.644;2023-01-28T07:47:36;81.40;;;44.72;;
30068;SDS011;16894;49.456;10.644;2023-01-28T07:50:02;104.93;;;46.23;;
30068;SDS011;16894;49.456;10.644;2023-01-28T07:52:27;50.75;;;30.83;;
30068;SDS011;16894;49.456;10.644;2023-01-28T07:54:53;134.80;;;52.85;;
30068;SDS011;16894;49.456;10.644;2023-01-28T07:57:19;83.97;;;38.55;;
30068;SDS011;16894;49.456;10.644;2023-01-28T07:59:50;128.93;;;49.13;;
30068;SDS011;16894;49.456;10.644;2023-01-28T08:02:16;101.20;;;44.35;;
30068;SDS011;16894;49.456;10.644;2023-01-28T08:04:43;119.32;;;50.70;;
30068;SDS011;16894;49.456;10.644;2023-01-28T08:07:10;71.50;;;36.75;;
30068;SDS011;16894;49.456;10.644;2023-01-28T08:09:35;56.17;;;33.33;;
30068;SDS011;16894;49.456;10.644;2023-01-28T08:12:01;50.92;;;33.38;;
30068;SDS011;16894;49.456;10.644;2023-01-28T08:14:27;44.33;;;32.42;;
30068;SDS011;16894;49.456;10.644;2023-01-28T08:16:53;45.13;;;30.30;;
30068;SDS011;16894;49.456;10.644;2023-01-28T08:19:18;47.17;;;28.03;;
30068;SDS011;16894;49.456;10.644;2023-01-28T08:21:49;56.42;;;32.33;;
30068;SDS011;16894;49.456;10.644;2023-01-28T08:24:15;132.32;;;55.70;;
30068;SDS011;16894;49.456;10.644;2023-01-28T08:26:41;125.63;;;53.20;;
30068;SDS011;16894;49.456;10.644;2023-01-28T08:29:07;186.40;;;68.63;;
30068;SDS011;16894;49.456;10.644;2023-01-28T08:31:33;101.80;;;55.00;;
30068;SDS011;16894;49.456;10.644;2023-01-28T08:33:59;554.60;;;152.00;;
30068;SDS011;16894;49.456;10.644;2023-01-28T08:36:25;67.95;;;39.78;;
30068;SDS011;16894;49.456;10.644;2023-01-28T08:38:53;87.93;;;43.30;;
30068;SDS011;16894;49.456;10.644;2023-01-28T08:41:22;65.22;;;37.83;;
30068;SDS011;16894;49.456;10.644;2023-01-28T08:43:48;37.65;;;30.58;;
30068;SDS011;16894;49.456;10.644;2023-01-28T08:46:14;56.58;;;41.35;;
30068;SDS011;16894;49.456;10.644;2023-01-28T08:48:40;67.70;;;39.78;;
30068;SDS011;16894;49.456;10.644;2023-01-28T08:51:06;77.78;;;49.92;;
30068;SDS011;16894;49.456;10.644;2023-01-28T08:53:31;48.97;;;39.67;;
30068;SDS011;16894;49.456;10.644;2023-01-28T08:55:57;38.55;;;27.30;;
30068;SDS011;16894;49.456;10.644;2023-01-28T08:58:23;34.20;;;30.67;;
30068;SDS011;16894;49.456;10.644;2023-01-28T09:00:49;37.33;;;31.93;;
30068;SDS011;16894;49.456;10.644;2023-01-28T09:03:15;44.22;;;26.88;;
30068;SDS011;16894;49.456;10.644;2023-01-28T09:05:41;32.78;;;24.08;;
30068;SDS011;16894;49.456;10.644;2023-01-28T09:08:12;27.85;;;24.92;;
30068;SDS011;16894;49.456;10.644;2023-01-28T09:10:39;25.10;;;21.63;;
30068;SDS011;16894;49.456;10.644;2023-01-28T09:13:10;23.65;;;20.13;;
30068;SDS011;16894;49.456;10.644;2023-01-28T09:15:38;25.88;;;17.35;;
30068;SDS011;16894;49.456;10.644;2023-01-28T09:18:04;60.40;;;21.38;;
30068;SDS011;16894;49.456;10.644;2023-01-28T09:20:29;20.63;;;14.65;;
30068;SDS011;16894;49.456;10.644;2023-01-28T09:22:57;21.63;;;13.98;;
30068;SDS011;16894;49.456;10.644;2023-01-28T09:25:23;18.35;;;13.25;;
30068;SDS011;16894;49.456;10.644;2023-01-28T09:27:48;22.47;;;12.73;;
30068;SDS011;16894;49.456;10.644;2023-01-28T09:30:14;27.23;;;12.97;;
30068;SDS011;16894;49.456;10.644;2023-01-28T09:32:40;19.02;;;12.48;;
30068;SDS011;16894;49.456;10.644;2023-01-28T09:35:06;17.23;;;10.43;;
30068;SDS011;16894;49.456;10.644;2023-01-28T09:37:32;24.50;;;9.65;;
30068;SDS011;16894;49.456;10.644;2023-01-28T09:39:57;13.05;;;10.32;;
30068;SDS011;16894;49.456;10.644;2023-01-28T09:45:15;18.52;;;8.43;;
30068;SDS011;16894;49.456;10.644;2023-01-28T09:47:49;30.55;;;9.45;;
30068;SDS011;16894;49.456;10.644;2023-01-28T09:50:30;24.38;;;11.15;;
30068;SDS011;16894;49.456;10.644;2023-01-28T09:53:27;47.75;;;13.00;;
30068;SDS011;16894;49.456;10.644;2023-01-28T09:58:27;49.80;;;24.67;;
30068;SDS011;16894;49.456;10.644;2023-01-28T10:00:56;25.45;;;14.68;;
30068;SDS011;16894;49.456;10.644;2023-01-28T10:03:54;23.83;;;9.95;;
30068;SDS011;16894;49.456;10.644;2023-01-28T10:06:38;23.55;;;12.55;;
30068;SDS011;16894;49.456;10.644;2023-01-28T10:09:15;14.30;;;9.23;;
30068;SDS011;16894;49.456;10.644;2023-01-28T10:17:49;12.63;;;7.53;;
30068;SDS011;16894;49.456;10.644;2023-01-28T10:20:51;11.27;;;6.00;;
30068;SDS011;16894;49.456;10.644;2023-01-28T10:25:56;11.30;;;6.68;;
30068;SDS011;16894;49.456;10.644;2023-01-28T10:28:25;11.43;;;7.18;;
30068;SDS011;16894;49.456;10.644;2023-01-28T10:30:52;8.23;;;5.65;;
30068;SDS011;16894;49.456;10.644;2023-01-28T10:33:23;10.63;;;7.30;;
30068;SDS011;16894;49.456;10.644;2023-01-28T10:35:57;8.18;;;6.50;;
30068;SDS011;16894;49.456;10.644;2023-01-28T10:38:23;13.85;;;7.53;;
30068;SDS011;16894;49.456;10.644;2023-01-28T10:40:50;15.20;;;7.95;;
30068;SDS011;16894;49.456;10.644;2023-01-28T10:43:18;20.17;;;12.95;;
30068;SDS011;16894;49.456;10.644;2023-01-28T10:48:47;14.10;;;9.65;;
30068;SDS011;16894;49.456;10.644;2023-01-28T10:51:34;12.18;;;9.40;;
30068;SDS011;16894;49.456;10.644;2023-01-28T10:54:01;10.82;;;8.52;;
30068;SDS011;16894;49.456;10.644;2023-01-28T10:56:31;14.35;;;11.02;;
30068;SDS011;16894;49.456;10.644;2023-01-28T10:59:06;9.68;;;8.77;;
30068;SDS011;16894;49.456;10.644;2023-01-28T11:04:45;9.27;;;6.55;;
30068;SDS011;16894;49.456;10.644;2023-01-28T11:07:18;8.80;;;6.67;;
30068;SDS011;16894;49.456;10.644;2023-01-28T11:09:46;9.93;;;8.55;;
30068;SDS011;16894;49.456;10.644;2023-01-28T11:14:49;10.52;;;6.15;;
30068;SDS011;16894;49.456;10.644;2023-01-28T11:17:18;8.38;;;5.65;;
30068;SDS011;16894;49.456;10.644;2023-01-28T11:19:46;9.93;;;5.95;;
30068;SDS011;16894;49.456;10.644;2023-01-28T11:24:51;5.13;;;4.50;;
30068;SDS011;16894;49.456;10.644;2023-01-28T11:27:17;7.80;;;4.88;;
30068;SDS011;16894;49.456;10.644;2023-01-28T11:29:49;6.90;;;4.95;;
30068;SDS011;16894;49.456;10.644;2023-01-28T11:32:19;7.80;;;5.43;;
30068;SDS011;16894;49.456;10.644;2023-01-28T11:34:53;11.60;;;6.45;;
30068;SDS011;16894;49.456;10.644;2023-01-28T11:37:21;7.00;;;4.95;;
30068;SDS011;16894;49.456;10.644;2023-01-28T11:39:59;7.20;;;5.65;;
30068;SDS011;16894;49.456;10.644;2023-01-28T11:42:25;9.55;;;5.68;;
30068;SDS011;16894;49.456;10.644;2023-01-28T11:44:51;9.83;;;6.67;;
30068;SDS011;16894;49.456;10.644;2023-01-28T11:58:21;6.50;;;4.95;;
30068;SDS011;16894;49.456;10.644;2023-01-28T12:08:58;6.53;;;4.93;;
30068;SDS011;16894;49.456;10.644;2023-01-28T12:11:49;10.05;;;5.80;;
30068;SDS011;16894;49.456;10.644;2023-01-28T12:20:09;8.32;;;5.25;;
30068;SDS011;16894;49.456;10.644;2023-01-28T12:22:45;6.38;;;5.55;;
30068;SDS011;16894;49.456;10.644;2023-01-28T12:28:37;4.40;;;3.25;;
30068;SDS011;16894;49.456;10.644;2023-01-28T12:31:33;7.80;;;4.22;;
30068;SDS011;16894;49.456;10.644;2023-01-28T12:34:03;8.80;;;3.78;;
30068;SDS011;16894;49.456;10.644;2023-01-28T12:37:15;4.93;;;3.40;;
30068;SDS011;16894;49.456;10.644;2023-01-28T12:42:54;4.15;;;3.15;;
30068;SDS011;16894;49.456;10.644;2023-01-28T12:45:28;3.80;;;3.40;;
30068;SDS011;16894;49.456;10.644;2023-01-28T12:48:05;5.55;;;4.07;;
30068;SDS011;16894;49.456;10.644;2023-01-28T12:50:40;9.63;;;4.18;;
30068;SDS011;16894;49.456;10.644;2023-01-28T12:53:27;14.00;;;6.32;;
30068;SDS011;16894;49.456;10.644;2023-01-28T12:56:03;8.25;;;4.80;;
30068;SDS011;16894;49.456;10.644;2023-01-28T12:58:41;7.50;;;4.78;;
30068;SDS011;16894;49.456;10.644;2023-01-28T13:01:09;5.05;;;4.15;;
30068;SDS011;16894;49.456;10.644;2023-01-28T13:06:36;6.80;;;4.25;;
30068;SDS011;16894;49.456;10.644;2023-01-28T13:09:17;6.80;;;4.45;;
30068;SDS011;16894;49.456;10.644;2023-01-28T13:11:45;5.72;;;4.38;;
30068;SDS011;16894;49.456;10.644;2023-01-28T13:14:15;6.95;;;4.47;;
30068;SDS011;16894;49.456;10.644;2023-01-28T13:16:41;5.20;;;4.32;;
30068;SDS011;16894;49.456;10.644;2023-01-28T13:19:10;11.37;;;4.47;;
30068;SDS011;16894;49.456;10.644;2023-01-28T13:21:49;8.73;;;5.22;;
30068;SDS011;16894;49.456;10.644;2023-01-28T13:31:40;17.77;;;9.05;;
30068;SDS011;16894;49.456;10.644;2023-01-28T13:34:10;23.55;;;8.82;;
30068;SDS011;16894;49.456;10.644;2023-01-28T13:36:53;7.05;;;4.97;;
30068;SDS011;16894;49.456;10.644;2023-01-28T13:39:21;12.77;;;7.38;;
30068;SDS011;16894;49.456;10.644;2023-01-28T13:41:53;13.35;;;5.60;;
30068;SDS011;16894;49.456;10.644;2023-01-28T13:44:32;5.47;;;4.53;;
30068;SDS011;16894;49.456;10.644;2023-01-28T13:49:38;10.00;;;4.78;;
30068;SDS011;16894;49.456;10.644;2023-01-28T13:54:35;14.80;;;4.30;;
30068;SDS011;16894;49.456;10.644;2023-01-28T13:57:14;11.30;;;4.53;;
30068;SDS011;16894;49.456;10.644;2023-01-28T14:19:03;16.95;;;5.60;;
30068;SDS011;16894;49.456;10.644;2023-01-28T14:21:34;11.18;;;4.88;;
30068;SDS011;16894;49.456;10.644;2023-01-28T14:24:00;21.70;;;5.22;;
30068;SDS011;16894;49.456;10.644;2023-01-28T14:32:17;37.67;;;8.93;;
30068;SDS011;16894;49.456;10.644;2023-01-28T14:34:48;34.90;;;10.63;;
30068;SDS011;16894;49.456;10.644;2023-01-28T14:37:15;47.80;;;16.50;;
30068;SDS011;16894;49.456;10.644;2023-01-28T14:42:26;27.63;;;9.93;;
30068;SDS011;16894;49.456;10.644;2023-01-28T14:45:48;27.33;;;6.70;;
30068;SDS011;16894;49.456;10.644;2023-01-28T14:50:34;24.23;;;5.85;;
30068;SDS011;16894;49.456;10.644;2023-01-28T14:53:21;16.10;;;6.07;;
30068;SDS011;16894;49.456;10.644;2023-01-28T14:58:36;26.38;;;5.28;;
30068;SDS011;16894;49.456;10.644;2023-01-28T15:01:16;10.65;;;5.28;;
30068;SDS011;16894;49.456;10.644;2023-01-28T15:03:47;30.45;;;7.80;;
30068;SDS011;16894;49.456;10.644;2023-01-28T15:06:14;20.13;;;5.47;;
30068;SDS011;16894;49.456;10.644;2023-01-28T15:08:42;17.15;;;6.85;;
30068;SDS011;16894;49.456;10.644;2023-01-28T15:13:44;31.27;;;8.90;;
30068;SDS011;16894;49.456;10.644;2023-01-28T15:16:15;34.38;;;13.30;;
30068;SDS011;16894;49.456;10.644;2023-01-28T15:18:44;23.67;;;8.02;;
30068;SDS011;16894;49.456;10.644;2023-01-28T15:21:11;19.50;;;9.52;;
30068;SDS011;16894;49.456;10.644;2023-01-28T15:23:37;23.90;;;8.07;;
30068;SDS011;16894;49.456;10.644;2023-01-28T15:28:38;13.00;;;5.90;;
30068;SDS011;16894;49.456;10.644;2023-01-28T15:31:06;8.02;;;5.57;;
30068;SDS011;16894;49.456;10.644;2023-01-28T15:34:03;10.98;;;6.10;;
30068;SDS011;16894;49.456;10.644;2023-01-28T15:36:36;16.98;;;5.82;;
30068;SDS011;16894;49.456;10.644;2023-01-28T15:39:02;33.20;;;7.85;;
30068;SDS011;16894;49.456;10.644;2023-01-28T15:41:31;13.90;;;7.28;;
30068;SDS011;16894;49.456;10.644;2023-01-28T15:44:02;20.58;;;7.18;;
30068;SDS011;16894;49.456;10.644;2023-01-28T15:46:29;19.48;;;6.88;;
30068;SDS011;16894;49.456;10.644;2023-01-28T15:48:58;27.45;;;7.15;;
30068;SDS011;16894;49.456;10.644;2023-01-28T15:51:30;19.50;;;5.88;;
30068;SDS011;16894;49.456;10.644;2023-01-28T15:54:15;19.88;;;8.02;;
30068;SDS011;16894;49.456;10.644;2023-01-28T15:56:42;33.05;;;8.00;;
30068;SDS011;16894;49.456;10.644;2023-01-28T15:59:25;21.07;;;7.83;;
30068;SDS011;16894;49.456;10.644;2023-01-28T16:05:03;14.30;;;6.53;;
30068;SDS011;16894;49.456;10.644;2023-01-28T16:07:41;47.58;;;7.03;;
30068;SDS011;16894;49.456;10.644;2023-01-28T16:10:18;14.00;;;5.63;;
30068;SDS011;16894;49.456;10.644;2023-01-28T16:13:00;22.00;;;7.45;;
30068;SDS011;16894;49.456;10.644;2023-01-28T16:15:38;20.58;;;6.43;;
30068;SDS011;16894;49.456;10.644;2023-01-28T16:18:14;8.65;;;5.30;;
30068;SDS011;16894;49.456;10.644;2023-01-28T16:20:56;19.88;;;8.52;;
30068;SDS011;16894;49.456;10.644;2023-01-28T16:23:24;14.40;;;5.70;;
30068;SDS011;16894;49.456;10.644;2023-01-28T16:26:01;53.20;;;7.75;;
30068;SDS011;16894;49.456;10.644;2023-01-28T16:28:43;13.73;;;6.07;;
30068;SDS011;16894;49.456;10.644;2023-01-28T16:31:09;21.38;;;11.13;;
30068;SDS011;16894;49.456;10.644;2023-01-28T16:36:01;20.30;;;7.10;;
30068;SDS011;16894;49.456;10.644;2023-01-28T16:38:26;26.83;;;8.32;;
30068;SDS011;16894;49.456;10.644;2023-01-28T16:40:52;29.33;;;8.77;;
30068;SDS011;16894;49.456;10.644;2023-01-28T16:43:18;15.77;;;6.38;;
30068;SDS011;16894;49.456;10.644;2023-01-28T16:45:43;22.13;;;9.00;;
30068;SDS011;16894;49.456;10.644;2023-01-28T16:48:10;17.00;;;5.00;;
30068;SDS011;16894;49.456;10.644;2023-01-28T16:53:16;12.02;;;4.88;;
30068;SDS011;16894;49.456;10.644;2023-01-28T16:55:45;11.98;;;4.60;;
30068;SDS011;16894;49.456;10.644;2023-01-28T16:58:13;11.63;;;4.97;;
30068;SDS011;16894;49.456;10.644;2023-01-28T17:00:41;15.73;;;6.63;;
30068;SDS011;16894;49.456;10.644;2023-01-28T17:03:06;21.07;;;6.90;;